Time;durP1;ratioP1;P1;durP2;ratioP2;P2;SDS_P1;SDS_P2;PMS_P1;PMS_P2;Temp;Humidity;BMP_temperature;BMP_pressure;BME280_temperature;BME280_humidity;BME280_pressure;Samples;Min_cycle;Max_cycle;Signal;HPM_P1;HPM_P2
2023/08/20 00:01:07;;;;;;;9.60;4.10;;;;;;;;;;4950788;28;20030;-82
2023/08/20 00:03:33;;;;;;;7.80;4.03;;;;;;;;;;4980349;28;20023;-82
2023/08/20 00:05:59;;;;;;;8.88;3.70;;;20.80;99.90;;;;;;4983182;28;20058;-82
2023/08/20 00:08:25;;;;;;;9.18;4.05;;;;;;;;;;4964710;28;20564;-81
2023/08/20 00:10:51;;;;;;;8.63;4.70;;;;;;;;;;4966582;28;20089;-82
2023/08/20 00:13:17;;;;;;;7.88;4.45;;;;;;;;;;4970972;28;20054;-82
2023/08/20 00:15:43;;;;;;;11.02;4.28;;;;;;;;;;4969972;28;20031;-82
2023/08/20 00:18:09;;;;;;;6.28;3.88;;;20.80;99.90;;;;;;4966758;28;20034;-82
2023/08/20 00:20:35;;;;;;;5.45;4.22;;;;;;;;;;4971534;28;20035;-80
2023/08/20 00:23:02;;;;;;;7.00;4.13;;;20.80;99.90;;;;;;4958519;28;20035;-80
2023/08/20 00:25:28;;;;;;;6.95;3.92;;;;;;;;;;4965760;28;20038;-80
2023/08/20 00:27:54;;;;;;;6.90;3.72;;;;;;;;;;4968002;28;20518;-80
2023/08/20 00:30:19;;;;;;;10.68;4.40;;;20.30;99.90;;;;;;4980869;28;20051;-80
2023/08/20 00:32:45;;;;;;;7.50;4.65;;;20.10;99.90;;;;;;4965693;28;20029;-80
2023/08/20 00:35:11;;;;;;;7.18;3.92;;;;;;;;;;4964969;28;20047;-80
2023/08/20 00:37:37;;;;;;;11.05;4.22;;;;;;;;;;4979096;28;20030;-80
2023/08/20 00:40:05;;;;;;;9.23;4.32;;;;;;;;;;4959482;28;20050;-80
2023/08/20 00:42:31;;;;;;;10.32;5.03;;;;;;;;;;4941819;28;20034;-80
2023/08/20 00:44:57;;;;;;;7.07;4.35;;;20.80;99.90;;;;;;4973154;28;20093;-80
2023/08/20 00:47:23;;;;;;;7.28;4.13;;;;;;;;;;4955106;28;20023;-79
2023/08/20 00:49:49;;;;;;;11.10;4.18;;;;;;;;;;4957056;28;20480;-80
2023/08/20 00:52:17;;;;;;;7.60;4.07;;;20.80;99.90;;;;;;4986608;28;20046;-80
2023/08/20 00:54:46;;;;;;;7.45;4.55;;;21.00;99.90;;;;;;4956370;28;20592;-80
2023/08/20 00:57:14;;;;;;;7.45;4.20;;;20.40;99.90;;;;;;4950515;28;20113;-80
2023/08/20 00:59:41;;;;;;;6.05;4.07;;;;;;;;;;4959693;28;20118;-80
2023/08/20 01:02:07;;;;;;;8.15;4.72;;;;;;;;;;4957954;28;20484;-80
2023/08/20 01:04:33;;;;;;;5.80;3.80;;;;;;;;;;4962869;28;20078;-80
2023/08/20 01:07:05;;;;;;;6.57;4.07;;;20.40;99.90;;;;;;4946615;28;20118;-81
2023/08/20 01:10:01;;;;;;;7.82;4.72;;;20.60;99.90;;;;;;4976779;28;20511;-81
2023/08/20 01:12:29;;;;;;;8.05;3.80;;;20.40;99.90;;;;;;4959824;28;20031;-80
2023/08/20 01:14:54;;;;;;;6.78;4.28;;;;;;;;;;4957272;28;20109;-81
2023/08/20 01:17:21;;;;;;;6.38;4.15;;;;;;;;;;4961214;28;20055;-81
2023/08/20 01:19:47;;;;;;;8.05;4.82;;;;;;;;;;4956572;28;20045;-81
2023/08/20 01:22:18;;;;;;;9.13;4.38;;;20.30;99.90;;;;;;4963007;28;20109;-81
2023/08/20 01:24:47;;;;;;;7.03;4.07;;;;;;;;;;4975048;28;20054;-79
2023/08/20 01:27:32;;;;;;;7.30;4.30;;;21.30;99.90;;;;;;4960929;28;20751;-81
2023/08/20 01:29:59;;;;;;;6.88;4.28;;;20.90;99.90;;;;;;4964403;28;20054;-81
2023/08/20 01:32:25;;;;;;;7.80;4.50;;;;;;;;;;4952354;28;20038;-81
2023/08/20 01:34:53;;;;;;;7.40;4.13;;;20.90;99.90;;;;;;4984784;28;20475;-80
2023/08/20 01:37:19;;;;;;;7.38;4.40;;;;;;;;;;4962136;28;21953;-80
2023/08/20 01:39:45;;;;;;;6.32;3.83;;;;;;;;;;4980512;28;20038;-80
2023/08/20 01:42:11;;;;;;;6.78;3.85;;;;;;;;;;4977360;28;20031;-80
2023/08/20 01:44:38;;;;;;;7.75;4.50;;;;;;;;;;4974754;28;20055;-80
2023/08/20 01:47:04;;;;;;;5.85;4.10;;;;;;;;;;4962129;28;20515;-79
2023/08/20 01:49:30;;;;;;;12.35;4.97;;;;;;;;;;4961798;28;20554;-80
2023/08/20 01:51:56;;;;;;;8.35;4.32;;;;;;;;;;4961077;28;20031;-81
2023/08/20 01:54:23;;;;;;;8.75;3.92;;;;;;;;;;4968762;28;20054;-81
2023/08/20 01:56:48;;;;;;;8.50;4.35;;;;;;;;;;4968681;28;20064;-80
2023/08/20 01:59:14;;;;;;;5.70;4.32;;;;;;;;;;4970837;28;20030;-82
2023/08/20 02:01:40;;;;;;;10.00;4.60;;;;;;;;;;4971177;28;20035;-80
2023/08/20 02:04:06;;;;;;;10.18;3.95;;;;;;;;;;4975401;28;20022;-80
2023/08/20 02:06:33;;;;;;;10.23;4.38;;;;;;;;;;4958631;28;20031;-80
2023/08/20 02:08:59;;;;;;;9.57;4.78;;;;;;;;;;4981753;28;20022;-81
2023/08/20 02:11:25;;;;;;;7.60;4.10;;;;;;;;;;4979618;28;20039;-80
2023/08/20 02:13:51;;;;;;;11.20;4.32;;;;;;;;;;4963365;28;20043;-81
2023/08/20 02:16:17;;;;;;;8.48;4.30;;;;;;;;;;4963086;28;20041;-81
2023/08/20 02:18:43;;;;;;;5.78;3.95;;;;;;;;;;4984598;28;20034;-81
2023/08/20 02:21:08;;;;;;;7.32;3.83;;;;;;;;;;4959919;28;20046;-80
2023/08/20 02:23:35;;;;;;;9.23;4.78;;;;;;;;;;4959691;28;20097;-81
2023/08/20 02:26:01;;;;;;;9.05;4.80;;;;;;;;;;4957043;28;20026;-81
2023/08/20 02:28:26;;;;;;;6.75;4.05;;;;;;;;;;4963598;28;20576;-80
2023/08/20 02:30:53;;;;;;;11.95;3.97;;;;;;;;;;4958187;28;20077;-81
2023/08/20 02:33:19;;;;;;;7.20;4.45;;;;;;;;;;4957018;28;20101;-80
2023/08/20 02:35:45;;;;;;;6.22;4.00;;;;;;;;;;4973816;28;20484;-81
2023/08/20 02:38:11;;;;;;;9.10;4.15;;;;;;;;;;4961665;28;20035;-81
2023/08/20 02:40:41;;;;;;;9.35;3.92;;;20.20;99.90;;;;;;4957471;28;20035;-80
2023/08/20 02:43:07;;;;;;;6.20;3.38;;;;;;;;;;4978962;28;20031;-81
2023/08/20 02:45:33;;;;;;;12.40;4.25;;;;;;;;;;4977133;28;20401;-80
2023/08/20 02:48:00;;;;;;;9.45;4.78;;;20.40;99.90;;;;;;4965515;28;20042;-80
2023/08/20 02:50:26;;;;;;;8.43;4.13;;;;;;;;;;4967890;28;20046;-80
2023/08/20 02:52:52;;;;;;;6.95;4.38;;;;;;;;;;4981208;28;20151;-79
2023/08/20 02:55:17;;;;;;;9.82;4.68;;;;;;;;;;4977336;28;20035;-82
2023/08/20 02:57:43;;;;;;;7.10;4.78;;;19.70;99.90;;;;;;4964990;28;20027;-83
2023/08/20 03:00:11;;;;;;;8.82;4.45;;;;;;;;;;4959490;28;20051;-81
2023/08/20 03:02:37;;;;;;;6.05;4.00;;;;;;;;;;4962481;28;22123;-82
2023/08/20 03:05:05;;;;;;;11.05;4.70;;;;;;;;;;4963918;28;20047;-82
2023/08/20 03:07:32;;;;;;;7.55;4.50;;;;;;;;;;4963428;28;20033;-82
2023/08/20 03:09:58;;;;;;;7.95;4.22;;;;;;;;;;4967661;28;20026;-83
2023/08/20 03:12:24;;;;;;;15.98;4.53;;;;;;;;;;4961348;28;20066;-83
2023/08/20 03:14:50;;;;;;;6.05;3.75;;;;;;;;;;4968141;28;20043;-81
2023/08/20 03:17:16;;;;;;;6.38;4.07;;;;;;;;;;4978729;28;20205;-81
2023/08/20 03:19:57;;;;;;;7.60;4.60;;;20.00;99.90;;;;;;4961230;28;20030;-81
2023/08/20 03:22:24;;;;;;;7.82;4.68;;;18.90;99.90;;;;;;4982145;28;20035;-81
2023/08/20 03:24:52;;;;;;;5.80;3.78;;;19.40;99.90;;;;;;4971221;28;20042;-81
2023/08/20 03:27:18;;;;;;;8.30;4.07;;;;;;;;;;4968755;28;20094;-81
2023/08/20 03:29:44;;;;;;;9.80;4.45;;;19.90;99.90;;;;;;4977014;28;20035;-83
2023/08/20 03:32:10;;;;;;;6.20;4.47;;;;;;;;;;4984251;28;20027;-81
2023/08/20 03:34:36;;;;;;;7.88;4.10;;;;;;;;;;4965589;28;20035;-81
2023/08/20 03:37:02;;;;;;;8.80;4.65;;;;;;;;;;4974812;28;20071;-82
2023/08/20 03:39:28;;;;;;;7.07;4.32;;;;;;;;;;4967040;28;20027;-81
2023/08/20 03:41:54;;;;;;;10.20;4.72;;;;;;;;;;4962909;28;20058;-82
2023/08/20 03:44:20;;;;;;;7.68;4.43;;;;;;;;;;4981056;28;20482;-80
2023/08/20 03:46:46;;;;;;;6.75;3.95;;;;;;;;;;4960071;28;20030;-83
2023/08/20 03:49:14;;;;;;;9.88;5.13;;;;;;;;;;4962201;28;20431;-81
2023/08/20 03:51:43;;;;;;;7.45;4.30;;;;;;;;;;4962746;28;20027;-82
2023/08/20 03:54:10;;;;;;;10.52;3.83;;;;;;;;;;4981215;28;20102;-81
2023/08/20 03:56:36;;;;;;;12.05;4.65;;;;;;;;;;4963816;28;20121;-83
2023/08/20 03:59:02;;;;;;;7.93;5.10;;;;;;;;;;4965364;28;20692;-81
2023/08/20 04:01:28;;;;;;;8.32;4.88;;;;;;;;;;4960307;28;20026;-80
2023/08/20 04:03:55;;;;;;;8.57;4.30;;;19.20;99.90;;;;;;4984515;28;20062;-80
2023/08/20 04:06:21;;;;;;;8.35;4.57;;;;;;;;;;4959595;28;20041;-79
2023/08/20 04:08:47;;;;;;;7.50;5.13;;;;;;;;;;4968020;28;20030;-81
2023/08/20 04:11:12;;;;;;;13.52;4.85;;;;;;;;;;4980484;28;20099;-81
2023/08/20 04:13:42;;;;;;;8.63;4.43;;;;;;;;;;4963238;28;20496;-81
2023/08/20 04:16:08;;;;;;;9.88;5.00;;;;;;;;;;4981554;28;20034;-82
2023/08/20 04:18:34;;;;;;;7.72;5.05;;;;;;;;;;4975126;28;20490;-81
2023/08/20 04:21:00;;;;;;;11.75;4.90;;;;;;;;;;4971535;28;20054;-80
2023/08/20 04:23:26;;;;;;;13.35;4.97;;;;;;;;;;4961335;28;20624;-82
2023/08/20 04:25:52;;;;;;;7.55;4.75;;;;;;;;;;4985385;28;20023;-82
2023/08/20 04:28:18;;;;;;;12.55;5.13;;;;;;;;;;4984492;28;20023;-81
2023/08/20 04:30:44;;;;;;;8.30;4.38;;;;;;;;;;4975415;28;20391;-82
2023/08/20 04:33:11;;;;;;;8.23;5.03;;;;;;;;;;4970426;28;20166;-81
2023/08/20 04:35:38;;;;;;;7.97;4.70;;;;;;;;;;4983518;28;20148;-82
2023/08/20 04:38:04;;;;;;;7.03;4.18;;;;;;;;;;4961317;28;20039;-81
2023/08/20 04:40:29;;;;;;;7.70;3.58;;;19.10;99.90;;;;;;4986437;28;20071;-82
2023/08/20 04:42:55;;;;;;;7.45;3.90;;;;;;;;;;4965506;28;20038;-82
2023/08/20 04:45:21;;;;;;;8.38;4.20;;;;;;;;;;4973253;28;20026;-82
2023/08/20 04:47:47;;;;;;;9.63;3.92;;;;;;;;;;4957378;28;20149;-82
2023/08/20 04:50:13;;;;;;;7.97;4.72;;;;;;;;;;4982167;28;20027;-80
2023/08/20 04:52:39;;;;;;;7.07;3.67;;;;;;;;;;4964586;28;20047;-80
2023/08/20 04:55:09;;;;;;;11.90;4.55;;;19.30;99.90;;;;;;4979896;28;20034;-81
2023/08/20 04:57:35;;;;;;;9.13;4.65;;;;;;;;;;4973211;28;20609;-82
2023/08/20 05:00:01;;;;;;;10.90;4.10;;;;;;;;;;4972535;28;20066;-81
2023/08/20 05:02:27;;;;;;;7.63;4.15;;;;;;;;;;4974332;28;20070;-81
2023/08/20 05:04:54;;;;;;;7.43;4.53;;;;;;;;;;4959542;28;20632;-84
2023/08/20 05:07:20;;;;;;;7.57;4.53;;;;;;;;;;4956616;28;20030;-81
2023/08/20 05:09:46;;;;;;;6.95;4.65;;;;;;;;;;4966959;28;20039;-80
2023/08/20 05:12:12;;;;;;;6.80;4.30;;;;;;;;;;4966826;28;20021;-80
2023/08/20 05:14:38;;;;;;;8.68;5.43;;;;;;;;;;4986710;28;20153;-81
2023/08/20 05:17:04;;;;;;;10.45;4.53;;;;;;;;;;4992273;28;20042;-82
2023/08/20 05:19:30;;;;;;;7.88;4.38;;;;;;;;;;4969105;28;20045;-82
2023/08/20 05:21:58;;;;;;;6.80;4.35;;;19.30;99.90;;;;;;4974903;28;20446;-82
2023/08/20 05:24:25;;;;;;;8.32;5.07;;;;;;;;;;4958145;28;20030;-82
2023/08/20 05:27:10;;;;;;;6.30;4.57;;;;;;;;;;4973387;28;20050;-79
2023/08/20 05:29:37;;;;;;;12.48;4.45;;;19.10;99.90;;;;;;4970907;28;20503;-80
2023/08/20 05:32:03;;;;;;;6.13;4.68;;;;;;;;;;4933439;28;20023;-80
2023/08/20 05:34:29;;;;;;;12.77;5.95;;;;;;;;;;4963225;28;20042;-79
2023/08/20 05:36:55;;;;;;;10.82;5.30;;;;;;;;;;4963718;28;20046;-79
2023/08/20 05:39:22;;;;;;;8.20;4.45;;;;;;;;;;4956874;28;20056;-80
2023/08/20 05:41:48;;;;;;;13.20;4.80;;;;;;;;;;4965945;28;20608;-79
2023/08/20 05:44:14;;;;;;;10.68;5.18;;;;;;;;;;4945531;28;20031;-82
2023/08/20 05:46:40;;;;;;;6.78;4.47;;;;;;;;;;4964464;28;20046;-81
2023/08/20 05:49:07;;;;;;;11.30;5.15;;;;;;;;;;4962329;28;20098;-82
2023/08/20 05:51:32;;;;;;;7.60;4.80;;;;;;;;;;4972788;28;20101;-80
2023/08/20 05:53:58;;;;;;;8.25;4.72;;;;;;;;;;4973238;28;20114;-80
2023/08/20 05:56:24;;;;;;;11.43;4.95;;;;;;;;;;4990172;28;20032;-80
2023/08/20 05:58:51;;;;;;;6.78;5.63;;;;;;;;;;4944851;28;20034;-79
2023/08/20 06:01:17;;;;;;;8.55;4.90;;;;;;;;;;4969084;28;20503;-80
2023/08/20 06:03:43;;;;;;;8.20;4.72;;;;;;;;;;4979698;28;20046;-80
2023/08/20 06:06:09;;;;;;;6.28;4.72;;;;;;;;;;4980359;28;20411;-80
2023/08/20 06:08:34;;;;;;;8.13;5.40;;;;;;;;;;5000719;28;20105;-80
2023/08/20 06:11:00;;;;;;;11.93;5.13;;;;;;;;;;4987158;28;20042;-83
2023/08/20 06:13:26;;;;;;;14.02;5.78;;;;;;;;;;4948989;28;20387;-82
2023/08/20 06:15:52;;;;;;;8.20;5.50;;;;;;;;;;4951875;28;20039;-81
2023/08/20 06:18:18;;;;;;;8.60;4.85;;;;;;;;;;4971587;28;20031;-83
2023/08/20 06:20:44;;;;;;;6.68;4.60;;;;;;;;;;4962885;28;20035;-83
2023/08/20 06:23:10;;;;;;;16.27;6.18;;;;;;;;;;4946019;28;20046;-82
2023/08/20 06:25:36;;;;;;;8.43;5.55;;;;;;;;;;4979049;28;20031;-83
2023/08/20 06:28:03;;;;;;;9.63;5.07;;;;;;;;;;4964809;28;20031;-83
2023/08/20 06:30:28;;;;;;;8.80;5.32;;;;;;;;;;4967899;28;21589;-82
2023/08/20 06:32:54;;;;;;;7.80;4.90;;;;;;;;;;4951826;28;20023;-83
2023/08/20 06:35:20;;;;;;;10.80;6.07;;;;;;;;;;4962396;28;20034;-83
2023/08/20 06:37:46;;;;;;;10.20;4.75;;;;;;;;;;4968093;28;20019;-83
2023/08/20 06:40:13;;;;;;;12.95;4.95;;;;;;;;;;4963407;28;20034;-82
2023/08/20 06:42:39;;;;;;;10.40;4.88;;;;;;;;;;4960947;28;20019;-82
2023/08/20 06:45:05;;;;;;;8.93;4.75;;;;;;;;;;4981086;28;20038;-83
2023/08/20 06:47:31;;;;;;;9.90;4.50;;;;;;;;;;4962712;28;20041;-83
2023/08/20 06:49:57;;;;;;;8.98;4.72;;;;;;;;;;4948737;28;20027;-81
2023/08/20 06:52:23;;;;;;;8.45;4.70;;;;;;;;;;4973881;28;20358;-83
2023/08/20 06:54:49;;;;;;;10.00;4.93;;;;;;;;;;4957902;28;20065;-82
2023/08/20 06:57:15;;;;;;;7.00;4.47;;;;;;;;;;4965985;28;20034;-84
2023/08/20 06:59:43;;;;;;;7.75;4.40;;;;;;;;;;4973416;28;20514;-83
2023/08/20 07:02:09;;;;;;;6.40;4.82;;;;;;;;;;4965740;28;20512;-84
2023/08/20 07:04:36;;;;;;;7.70;4.32;;;;;;;;;;4959385;28;20031;-83
2023/08/20 07:07:04;;;;;;;8.38;4.80;;;;;;;;;;4967257;28;20081;-83
2023/08/20 07:09:30;;;;;;;8.05;5.25;;;;;;;;;;4969546;28;20554;-82
2023/08/20 07:11:56;;;;;;;10.30;3.80;;;;;;;;;;4966753;28;20027;-82
2023/08/20 07:14:22;;;;;;;9.70;4.35;;;;;;;;;;4978827;28;20028;-81
2023/08/20 07:16:48;;;;;;;5.93;4.40;;;;;;;;;;4976829;28;20121;-84
2023/08/20 07:19:14;;;;;;;6.28;3.80;;;;;;;;;;4964609;28;20435;-82
2023/08/20 07:21:40;;;;;;;7.28;4.38;;;;;;;;;;4951055;28;20320;-82
2023/08/20 07:24:06;;;;;;;7.85;4.50;;;25.80;99.90;;;;;;4977408;28;20033;-84
2023/08/20 07:26:32;;;;;;;6.13;4.32;;;;;;;;;;4943058;28;20126;-83
2023/08/20 07:28:58;;;;;;;9.82;4.35;;;;;;;;;;4964474;28;20471;-82
2023/08/20 07:31:29;;;;;;;11.05;4.30;;;26.60;99.90;;;;;;4970899;28;20023;-81
2023/08/20 07:33:56;;;;;;;8.85;4.57;;;26.60;99.90;;;;;;4961277;28;20034;-83
2023/08/20 07:36:23;;;;;;;8.63;4.28;;;26.80;99.90;;;;;;4961945;28;20063;-80
2023/08/20 07:38:49;;;;;;;5.43;3.83;;;;;;;;;;4960588;28;20058;-84
2023/08/20 07:41:15;;;;;;;6.45;3.90;;;;;;;;;;4964843;28;20031;-83
2023/08/20 07:43:42;;;;;;;10.18;4.32;;;;;;;;;;4965340;28;20034;-84
2023/08/20 07:46:08;;;;;;;8.27;3.92;;;27.90;99.90;;;;;;4985566;28;20119;-84
2023/08/20 07:48:35;;;;;;;10.88;4.20;;;27.70;99.90;;;;;;4961145;28;20523;-83
2023/08/20 07:51:02;;;;;;;5.45;3.45;;;27.70;99.90;;;;;;4963896;28;20041;-83
2023/08/20 07:53:28;;;;;;;4.95;3.60;;;;;;;;;;4950282;28;20038;-82
2023/08/20 07:55:53;;;;;;;5.90;2.88;;;;;;;;;;4969812;28;20511;-81
2023/08/20 07:58:19;;;;;;;8.00;3.42;;;28.80;99.90;;;;;;4964598;28;20026;-84
2023/08/20 08:00:45;;;;;;;8.00;3.40;;;;;;;;;;4967023;28;20040;-84
2023/08/20 08:03:11;;;;;;;7.15;3.85;;;;;;;;;;4965513;28;20053;-84
2023/08/20 08:05:37;;;;;;;5.32;3.75;;;;;;;;;;4970222;28;20035;-83
2023/08/20 08:08:03;;;;;;;7.20;3.15;;;27.70;99.90;;;;;;4977734;28;20023;-83
2023/08/20 08:10:29;;;;;;;5.60;3.70;;;;;;;;;;4962124;28;20038;-83
2023/08/20 08:12:55;;;;;;;8.77;3.33;;;;;;;;;;4957187;28;20030;-83
2023/08/20 08:15:22;;;;;;;6.88;3.53;;;28.90;99.90;;;;;;4978132;28;20045;-84
2023/08/20 08:17:48;;;;;;;7.55;3.92;;;;;;;;;;4961027;28;20497;-83
2023/08/20 08:20:15;;;;;;;6.10;3.47;;;;;;;;;;4953632;28;20038;-85
2023/08/20 08:22:41;;;;;;;3.85;2.65;;;;;;;;;;4982051;28;20027;-83
2023/08/20 08:25:07;;;;;;;7.45;3.35;;;;;;;;;;4976876;28;20069;-82
2023/08/20 08:27:32;;;;;;;8.25;3.58;;;;;;;;;;4965632;28;20114;-83
2023/08/20 08:29:58;;;;;;;8.57;3.95;;;;;;;;;;4976489;28;20496;-83
2023/08/20 08:32:25;;;;;;;6.57;3.08;;;;;;;;;;4955999;28;20038;-82
2023/08/20 08:34:51;;;;;;;4.68;3.17;;;;;;;;;;4960347;28;20047;-81
2023/08/20 08:37:18;;;;;;;5.85;3.25;;;;;;;;;;4964938;28;20058;-84
2023/08/20 08:39:44;;;;;;;8.82;3.08;;;;;;;;;;4952236;28;20454;-82
2023/08/20 08:42:11;;;;;;;7.22;3.70;;;29.50;99.90;;;;;;4951762;28;20166;-83
2023/08/20 08:44:37;;;;;;;7.85;3.33;;;;;;;;;;4939623;28;20053;-82
2023/08/20 08:47:05;;;;;;;7.00;3.85;;;31.60;99.90;;;;;;4958693;28;20078;-82
2023/08/20 08:49:33;;;;;;;6.82;3.28;;;32.10;99.90;;;;;;4972644;28;20459;-83
2023/08/20 08:51:59;;;;;;;5.13;3.22;;;;;;;;;;4957008;28;20026;-82
2023/08/20 08:54:26;;;;;;;5.28;2.80;;;;;;;;;;4969838;28;20037;-84
2023/08/20 08:56:52;;;;;;;6.00;2.85;;;;;;;;;;4962026;28;20385;-82
2023/08/20 08:59:18;;;;;;;6.30;2.50;;;;;;;;;;4960001;28;20048;-83
2023/08/20 09:01:44;;;;;;;5.57;2.47;;;;;;;;;;4947753;28;20079;-83
2023/08/20 09:04:09;;;;;;;5.32;2.70;;;;;;;;;;4965192;28;20574;-84
2023/08/20 09:06:52;;;;;;;6.72;2.65;;;38.30;88.80;;;;;;4967426;28;20393;-84
2023/08/20 09:09:19;;;;;;;5.30;2.85;;;39.10;84.30;;;;;;4941581;28;20489;-84
2023/08/20 09:11:45;;;;;;;4.13;2.58;;;;;;;;;;4948291;28;20038;-83
2023/08/20 09:14:29;;;;;;;7.80;2.60;;;39.50;73.20;;;;;;4954118;28;20030;-83
2023/08/20 09:17:00;;;;;;;4.28;2.78;;;39.90;75.00;;;;;;4945409;28;20535;-82
2023/08/20 09:19:30;;;;;;;7.05;2.70;;;39.10;74.30;;;;;;4953700;28;20047;-83
2023/08/20 09:21:56;;;;;;;3.78;2.40;;;;;;;;;;4948411;28;21917;-84
2023/08/20 09:24:42;;;;;;;5.50;2.92;;;32.60;73.50;;;;;;4957179;28;20484;-83
2023/08/20 09:27:08;;;;;;;3.83;2.55;;;;;;;;;;4971386;28;20031;-82
2023/08/20 09:29:44;;;;;;;6.18;2.80;;;34.90;83.20;;;;;;4958599;28;20502;-83
2023/08/20 09:32:18;;;;;;;3.95;2.70;;;33.80;87.60;;;;;;4946361;28;20094;-81
2023/08/20 09:34:43;;;;;;;5.07;2.88;;;;;;;;;;4959277;28;20015;-80
2023/08/20 09:37:10;;;;;;;6.20;2.42;;;32.60;92.10;;;;;;4981777;28;20027;-80
2023/08/20 09:39:36;;;;;;;6.72;3.72;;;;;;;;;;4975230;28;20023;-81
2023/08/20 09:42:02;;;;;;;6.80;2.50;;;;;;;;;;4959682;28;20066;-81
2023/08/20 09:44:36;;;;;;;5.10;2.78;;;31.70;95.30;;;;;;4959049;28;20062;-84
2023/08/20 09:47:05;;;;;;;4.18;3.05;;;31.70;95.90;;;;;;4973927;28;20786;-84
2023/08/20 09:49:36;;;;;;;5.65;2.83;;;31.30;96.30;;;;;;4951279;28;20031;-82
2023/08/20 09:52:04;;;;;;;6.38;2.80;;;31.00;97.00;;;;;;4934481;28;20042;-84
2023/08/20 09:54:50;;;;;;;5.03;2.80;;;31.60;97.10;;;;;;4947060;28;20525;-84
2023/08/20 09:57:27;;;;;;;4.97;3.25;;;31.30;96.90;;;;;;4967046;28;20484;-81
2023/08/20 09:59:53;;;;;;;3.45;2.53;;;;;;;;;;4968048;28;20042;-85
2023/08/20 10:02:19;;;;;;;4.88;2.97;;;;;;;;;;4960407;28;20042;-82
2023/08/20 10:04:45;;;;;;;4.85;2.65;;;;;;;;;;4950759;28;20046;-84
2023/08/20 10:07:12;;;;;;;5.97;3.00;;;;;;;;;;4960273;28;20435;-82
2023/08/20 10:09:40;;;;;;;6.82;3.22;;;31.60;98.30;;;;;;4949921;28;20058;-82
2023/08/20 10:12:06;;;;;;;4.55;2.65;;;;;;;;;;4966652;28;20065;-83
2023/08/20 10:14:32;;;;;;;9.20;2.58;;;32.00;96.70;;;;;;4951829;28;20687;-81
2023/08/20 10:17:06;;;;;;;4.53;2.67;;;31.50;97.30;;;;;;4964267;28;20464;-84
2023/08/20 10:19:34;;;;;;;6.40;2.95;;;;;;;;;;4955331;28;20125;-81
2023/08/20 10:22:02;;;;;;;7.40;3.28;;;31.40;96.20;;;;;;4952014;28;20035;-84
2023/08/20 10:24:28;;;;;;;7.07;2.78;;;;;;;;;;4971354;28;20030;-84
2023/08/20 10:27:10;;;;;;;4.85;3.00;;;31.70;96.90;;;;;;4976685;28;20275;-83
2023/08/20 10:29:43;;;;;;;5.05;3.03;;;31.70;95.90;;;;;;4969382;28;20953;-82
2023/08/20 10:32:11;;;;;;;3.35;2.53;;;31.80;95.40;;;;;;4949607;28;20047;-84
2023/08/20 10:34:38;;;;;;;6.15;2.85;;;31.80;95.80;;;;;;4962804;28;20279;-83
2023/08/20 10:37:10;;;;;;;8.85;3.13;;;32.10;93.60;;;;;;4959635;28;20029;-82
2023/08/20 10:39:36;;;;;;;6.53;2.67;;;;;;;;;;4952310;28;20038;-82
2023/08/20 10:42:11;;;;;;;5.05;2.47;;;;;;;;;;4958089;28;20542;-82
2023/08/20 10:45:05;;;;;;;5.38;2.53;;;31.80;93.30;;;;;;4957291;28;20035;-81
2023/08/20 10:47:45;;;;;;;5.78;2.42;;;31.80;93.00;;;;;;4959498;28;20036;-82
2023/08/20 10:50:18;;;;;;;8.35;2.95;;;31.80;93.00;;;;;;4969146;28;20033;-82
2023/08/20 10:52:54;;;;;;;8.07;2.35;;;32.10;95.40;;;;;;4958626;28;20066;-81
2023/08/20 10:55:24;;;;;;;5.25;2.78;;;32.50;93.40;;;;;;4965566;28;20062;-81
2023/08/20 10:57:57;;;;;;;3.67;2.38;;;31.60;96.10;;;;;;4961018;28;20106;-84
2023/08/20 11:00:25;;;;;;;4.53;2.20;;;32.20;92.40;;;;;;4962545;28;20030;-83
2023/08/20 11:02:55;;;;;;;5.45;2.95;;;32.10;92.90;;;;;;4981455;28;20041;-83
2023/08/20 11:05:30;;;;;;;5.28;3.22;;;;;;;;;;4963420;28;20138;-83
2023/08/20 11:07:56;;;;;;;4.38;2.03;;;;;;;;;;4965930;28;20032;-84
2023/08/20 11:10:22;;;;;;;4.22;2.53;;;;;;;;;;4957473;28;22597;-83
2023/08/20 11:12:48;;;;;;;6.97;2.42;;;;;;;;;;4982324;28;20471;-84
2023/08/20 11:15:14;;;;;;;4.55;2.55;;;;;;;;;;4976782;28;20490;-82
2023/08/20 11:17:48;;;;;;;4.65;2.25;;;;;;;;;;4962255;28;20039;-84
2023/08/20 11:20:17;;;;;;;3.53;2.20;;;32.70;90.80;;;;;;4961506;28;20031;-83
2023/08/20 11:22:43;;;;;;;5.00;2.30;;;;;;;;;;4974787;28;20498;-81
2023/08/20 11:25:14;;;;;;;4.13;2.55;;;32.00;98.70;;;;;;4958340;28;20045;-84
2023/08/20 11:27:44;;;;;;;3.53;2.50;;;32.30;89.10;;;;;;4963224;28;20115;-83
2023/08/20 11:30:12;;;;;;;3.70;2.42;;;;;;;;;;4960963;28;20034;-84
2023/08/20 11:32:38;;;;;;;3.97;2.50;;;;;;;;;;4970227;28;20042;-82
2023/08/20 11:35:05;;;;;;;4.75;2.58;;;32.30;87.80;;;;;;4979307;28;20027;-83
2023/08/20 11:37:31;;;;;;;4.57;1.90;;;;;;;;;;4946089;28;20117;-81
2023/08/20 11:40:33;;;;;;;3.47;2.53;;;;;;;;;;4952080;28;20059;-83
2023/08/20 11:43:00;;;;;;;3.88;2.00;;;32.10;90.80;;;;;;4979328;28;20058;-84
2023/08/20 11:45:26;;;;;;;4.05;2.55;;;;;;;;;;4940628;28;20189;-83
2023/08/20 11:47:57;;;;;;;4.15;2.17;;;32.20;91.00;;;;;;4962343;28;20050;-82
2023/08/20 11:50:23;;;;;;;4.68;2.83;;;;;;;;;;4958607;28;20034;-84
2023/08/20 11:52:49;;;;;;;5.45;2.08;;;;;;;;;;4955364;28;20026;-82
2023/08/20 11:55:23;;;;;;;7.40;2.65;;;32.70;91.00;;;;;;4957345;28;20866;-84
2023/08/20 11:57:50;;;;;;;3.60;2.42;;;;;;;;;;4962091;28;20503;-83
2023/08/20 12:00:26;;;;;;;6.50;2.70;;;32.70;91.00;;;;;;4946952;28;20112;-80
2023/08/20 12:02:54;;;;;;;6.47;2.25;;;32.70;90.40;;;;;;4963270;28;20030;-84
2023/08/20 12:05:20;;;;;;;3.08;1.73;;;;;;;;;;4941676;28;20037;-82
2023/08/20 12:07:58;;;;;;;5.88;2.22;;;;;;;;;;4961736;28;20030;-82
2023/08/20 12:10:25;;;;;;;3.38;2.63;;;32.40;86.80;;;;;;4954006;28;20028;-82
2023/08/20 12:12:52;;;;;;;5.07;2.58;;;;;;;;;;4974647;28;20031;-81
2023/08/20 12:15:19;;;;;;;3.00;1.92;;;32.60;90.70;;;;;;4977202;28;20694;-83
2023/08/20 12:18:01;;;;;;;3.58;2.47;;;32.50;90.90;;;;;;4947348;28;20031;-83
2023/08/20 12:20:30;;;;;;;6.00;2.53;;;32.50;91.10;;;;;;4943752;28;20061;-84
2023/08/20 12:23:01;;;;;;;7.03;2.80;;;32.40;90.30;;;;;;4958840;28;20039;-83
2023/08/20 12:25:30;;;;;;;5.40;2.88;;;32.60;90.60;;;;;;4967344;28;20039;-83
2023/08/20 12:27:56;;;;;;;7.38;2.22;;;;;;;;;;4964342;28;20069;-83
2023/08/20 12:30:22;;;;;;;9.77;2.72;;;;;;;;;;4995126;28;20051;-78
2023/08/20 12:32:49;;;;;;;3.03;2.08;;;;;;;;;;4986980;28;20031;-84
2023/08/20 12:35:15;;;;;;;3.92;2.40;;;;;;;;;;4979031;28;20035;-80
2023/08/20 12:37:40;;;;;;;7.28;2.65;;;;;;;;;;4971505;28;20607;-85
2023/08/20 12:40:13;;;;;;;6.18;2.20;;;;;;;;;;4990977;28;20034;-79
2023/08/20 12:42:39;;;;;;;2.83;2.08;;;;;;;;;;4970181;28;20031;-83
2023/08/20 12:45:07;;;;;;;4.88;1.83;;;33.00;88.50;;;;;;4979180;28;20117;-80
2023/08/20 12:47:33;;;;;;;3.20;2.50;;;;;;;;;;4980876;28;20432;-84
2023/08/20 12:49:59;;;;;;;4.72;2.60;;;;;;;;;;4949162;28;20041;-80
2023/08/20 12:52:25;;;;;;;9.40;3.08;;;;;;;;;;4969313;28;20114;-84
2023/08/20 12:54:51;;;;;;;4.53;2.70;;;;;;;;;;4985542;28;20038;-84
2023/08/20 12:57:17;;;;;;;4.65;2.15;;;;;;;;;;4970367;28;20030;-84
2023/08/20 12:59:44;;;;;;;4.78;2.10;;;;;;;;;;4965915;28;20058;-84
2023/08/20 13:02:11;;;;;;;3.60;2.00;;;;;;;;;;4959116;28;20035;-83
2023/08/20 13:04:37;;;;;;;9.25;2.17;;;;;;;;;;4958088;28;20107;-81
2023/08/20 13:07:04;;;;;;;5.82;2.15;;;32.60;86.00;;;;;;4981489;28;20069;-82
2023/08/20 13:09:31;;;;;;;3.60;2.47;;;;;;;;;;4938741;28;20062;-83
2023/08/20 13:11:58;;;;;;;3.03;2.05;;;32.60;86.10;;;;;;4966294;28;20503;-82
2023/08/20 13:14:24;;;;;;;4.65;2.95;;;;;;;;;;4954163;28;20028;-82
2023/08/20 13:16:51;;;;;;;4.85;2.10;;;32.40;84.10;;;;;;4979328;28;20038;-83
2023/08/20 13:19:17;;;;;;;4.85;2.10;;;;;;;;;;4963867;28;20053;-80
2023/08/20 13:21:44;;;;;;;4.35;1.85;;;;;;;;;;4961773;28;20589;-84
2023/08/20 13:24:10;;;;;;;3.17;1.70;;;;;;;;;;4977999;28;20053;-83
2023/08/20 13:26:36;;;;;;;5.28;2.65;;;;;;;;;;4985338;28;20048;-83
2023/08/20 13:29:03;;;;;;;3.88;2.13;;;;;;;;;;4950031;28;20090;-84
2023/08/20 13:31:29;;;;;;;19.45;1.98;;;;;;;;;;4967697;28;20423;-82
2023/08/20 13:33:55;;;;;;;2.92;2.10;;;;;;;;;;4983262;28;20041;-84
2023/08/20 13:36:21;;;;;;;4.85;2.25;;;;;;;;;;4962383;28;20045;-83
2023/08/20 13:38:47;;;;;;;2.92;1.98;;;;;;;;;;4975607;28;20031;-84
2023/08/20 13:41:13;;;;;;;3.10;2.15;;;;;;;;;;4949954;28;20098;-85
2023/08/20 13:43:39;;;;;;;4.32;1.88;;;;;;;;;;4979942;28;20028;-85
2023/08/20 13:46:05;;;;;;;2.78;1.65;;;;;;;;;;4946713;28;20034;-83
2023/08/20 13:48:31;;;;;;;4.45;2.17;;;;;;;;;;4979677;28;20031;-83
2023/08/20 13:50:57;;;;;;;5.00;2.67;;;;;;;;;;4961107;28;20066;-80
2023/08/20 13:53:25;;;;;;;1.88;1.35;;;;;;;;;;4960547;28;20039;-82
2023/08/20 13:55:51;;;;;;;3.38;1.80;;;;;;;;;;4960980;28;20500;-85
2023/08/20 13:58:17;;;;;;;5.05;1.92;;;;;;;;;;4966663;28;20023;-85
2023/08/20 14:00:43;;;;;;;5.40;1.60;;;;;;;;;;4954714;28;20039;-84
2023/08/20 14:03:09;;;;;;;5.35;1.75;;;;;;;;;;4954865;28;20090;-83
2023/08/20 14:05:35;;;;;;;5.30;1.63;;;;;;;;;;4985405;28;20045;-82
2023/08/20 14:08:01;;;;;;;2.75;1.95;;;;;;;;;;4974640;28;20391;-85